Observations
| Time | Sensor | AQI | SAQ | Temp °C | Hum % | Pres Pa | CO μg/m³ | H₂S μg/m³ | NO μg/m³ | NO₂ μg/m³ | O₃ μg/m³ | SO₂ μg/m³ | CO₂e PPM | VOC PPM | PM1 μg/m³ | PM2.5 μg/m³ | PM4 μg/m³ | PM10 μg/m³ | TPS µm |
|---|---|---|---|---|---|---|---|---|---|---|---|---|---|---|---|---|---|---|---|
| Wednesday 12 August 2026 | |||||||||||||||||||
| 12:51 | Trim Market St | 2 | 41.5 | 25 | 67,208 | 0 | 0 | 0 | 10.92 | 92.49 | 3.58 | 1.43 | 4.64 | 5.11 | |||||
| 12:51 | Trim Patrick St | 2 | 34.9 | 33 | 69,581 | 0 | 0 | 0.3 | 4.95 | 79.1 | 18.03 | 3.71 | 9.89 | 10.88 | |||||
| 12:50 | Trim Market St | 2 | 41.4 | 24 | 67,200 | 0 | 0 | 0 | 11.72 | 100.88 | 3.35 | 0.71 | 4.65 | 4.83 | |||||
| 12:50 | Trim Patrick St | 2 | 34.9 | 34 | 69,575 | 0 | 0 | 0.29 | 8.3 | 94.82 | 18.12 | 2.86 | 9.83 | 10.82 | |||||
| 12:49 | Trim Market St | 2 | 41.4 | 25 | 67,196 | 0 | 0 | 0 | 9.91 | 97.58 | 3.71 | 0 | 3.54 | 3.9 | |||||
| 12:49 | Trim Patrick St | 2 | 34.9 | 34 | 69,571 | 0 | 0 | 0.29 | 8.97 | 99.47 | 17.76 | 4.57 | 9.85 | 10.83 | |||||
| 12:48 | Trim Market St | 2 | 41.3 | 25 | 67,191 | 0 | 0 | 0 | 6.45 | 84.08 | 3.92 | 1.43 | 4.63 | 5.1 | |||||
| 12:47 | Trim Market St | 2 | 41.1 | 25 | 67,185 | 0 | 0 | 0 | 7.81 | 94.01 | 3.33 | 0.71 | 4.61 | 5.07 | |||||
| 12:47 | Trim Patrick St | 2 | 34.8 | 34 | 69,595 | 0 | 0 | 0.3 | 6.12 | 80.13 | 17.03 | 3.71 | 9.85 | 10.83 | |||||
| 12:46 | Trim Patrick St | 2 | 34.7 | 32 | 69,599 | 0 | 0 | 0.33 | 2.61 | 63.36 | 16.25 | 3.71 | 10.74 | 11.81 | |||||
| 12:45 | Trim Market St | 2 | 40.8 | 26 | 67,137 | 0.09 | 0 | 0 | 13.81 | 84.29 | 0.76 | 0.71 | 4.58 | 5.04 | |||||
| 12:45 | Trim Patrick St | 2 | 34.7 | 34 | 69,597 | 0 | 0 | 0.32 | 9.11 | 90.05 | 16.7 | 3.71 | 9.05 | 9.96 | |||||
| 12:44 | Trim Market St | 2 | 40.7 | 26 | 67,114 | 0.12 | 0 | 0 | 9.14 | 36.64 | 1.5 | 0.71 | 5.11 | 5.62 | |||||
| 12:44 | Trim Patrick St | 2 | 34.6 | 34 | 69,601 | 0 | 0 | 0.32 | 5.96 | 77.7 | 16.31 | 3.71 | 9 | 9.9 | |||||
| 12:43 | Trim Market St | 2 | 40.5 | 27 | 67,088 | 0.14 | 0 | 0 | 11.53 | 94.34 | 2.24 | 0.71 | 4.54 | 4.99 | |||||
| 12:43 | Trim Patrick St | 2 | 34.5 | 34 | 69,602 | 0 | 0 | 0.33 | 1.11 | 64.05 | 16.83 | 3.71 | 9 | 9.9 | |||||
| 12:42 | Trim Patrick St | 2 | 34.5 | 36 | 69,604 | 0 | 0 | 0.32 | 11.22 | 93.16 | 16.61 | 4.57 | 11.25 | 12.38 | |||||
| 12:41 | Trim Market St | 2 | 40.1 | 27 | 67,037 | 0.21 | 0 | 0 | 12.29 | 80.61 | 1.37 | 1.43 | 4.52 | 4.88 | |||||
| 12:41 | Trim Patrick St | 2 | 34.4 | 35 | 69,577 | 0 | 0 | 0.35 | 8.57 | 72.65 | 14.86 | 4.57 | 10.57 | 11.62 | |||||
| 12:40 | Trim Patrick St | 2 | 34.3 | 35 | 69,573 | 0 | 0 | 0.35 | 6.46 | 81.73 | 17.22 | 3.71 | 9.75 | 10.73 | |||||